Time;durP1;ratioP1;P1;durP2;ratioP2;P2;SDS_P1;SDS_P2;PMS_P1;PMS_P2;Temp;Humidity;BMP_temperature;BMP_pressure;BME280_temperature;BME280_humidity;BME280_pressure;Samples;Min_cycle;Max_cycle;Signal;HPM_P1;HPM_P2
2021/01/16 00:00:20;;;;;;;9.57;8.57;;;3.50;40.80;;;;;;10430513;28;20633;-78
2021/01/16 00:05:25;;;;;;;10.97;9.83;;;3.40;40.70;;;;;;10439401;28;20312;-78
2021/01/16 00:10:28;;;;;;;10.30;9.20;;;3.50;40.60;;;;;;10436056;28;20653;-78
2021/01/16 00:15:31;;;;;;;9.83;8.83;;;3.50;40.60;;;;;;10439751;28;20230;-78
2021/01/16 00:20:36;;;;;;;9.60;8.60;;;3.40;40.60;;;;;;10432338;28;20597;-78
2021/01/16 00:25:38;;;;;;;9.90;8.90;;;3.40;40.70;;;;;;10433668;28;20625;-78
2021/01/16 00:30:41;;;;;;;10.23;8.90;;;3.40;41.30;;;;;;10425517;28;20275;-78
2021/01/16 00:35:44;;;;;;;9.93;8.93;;;3.40;40.60;;;;;;10434614;28;20696;-79
2021/01/16 00:40:46;;;;;;;9.57;8.63;;;3.50;40.80;;;;;;10439149;28;20236;-78
2021/01/16 00:45:49;;;;;;;10.33;9.33;;;3.50;40.60;;;;;;10423949;28;20307;-78
2021/01/16 00:50:54;;;;;;;10.63;9.53;;;3.50;40.50;;;;;;10439093;28;20236;-78
2021/01/16 00:55:57;;;;;;;10.73;9.27;;;3.50;40.50;;;;;;10423682;28;20279;-78
2021/01/16 01:00:59;;;;;;;11.07;9.93;;;3.50;40.40;;;;;;10435331;28;20236;-78
2021/01/16 01:06:02;;;;;;;10.00;8.90;;;3.50;40.50;;;;;;10432567;28;20224;-78
2021/01/16 01:11:04;;;;;;;9.93;8.90;;;3.40;40.40;;;;;;10432719;28;20229;-78
2021/01/16 01:16:07;;;;;;;10.63;9.53;;;3.40;40.50;;;;;;10415832;28;20264;-78
2021/01/16 01:21:10;;;;;;;10.67;9.57;;;3.30;40.50;;;;;;10418754;28;20282;-78
2021/01/16 01:26:12;;;;;;;9.73;8.73;;;3.30;40.60;;;;;;10422622;28;20228;-78
2021/01/16 01:31:14;;;;;;;10.67;9.40;;;3.30;40.60;;;;;;10430635;28;20583;-78
2021/01/16 01:36:18;;;;;;;11.63;10.37;;;3.30;40.80;;;;;;10424599;28;20243;-78
2021/01/16 01:41:20;;;;;;;11.33;10.20;;;3.30;40.80;;;;;;10429921;28;20765;-78
2021/01/16 01:46:22;;;;;;;10.80;9.67;;;3.40;40.70;;;;;;10432881;28;20317;-78
2021/01/16 01:51:27;;;;;;;12.97;10.30;;;3.40;40.70;;;;;;10432500;28;20233;-78
2021/01/16 01:56:30;;;;;;;13.00;10.37;;;3.40;40.80;;;;;;10423113;28;20221;-78
2021/01/16 02:01:38;;;;;;;11.77;9.73;;;3.40;40.70;;;;;;10425407;28;20317;-78
2021/01/16 02:06:42;;;;;;;11.00;9.50;;;3.40;40.80;;;;;;10423806;28;20656;-79
2021/01/16 02:11:44;;;;;;;10.43;9.33;;;3.40;40.80;;;;;;10426533;28;20221;-78
2021/01/16 02:16:49;;;;;;;11.20;9.10;;;3.40;40.80;;;;;;10420336;28;20713;-78
2021/01/16 02:21:52;;;;;;;11.10;9.97;;;3.40;40.80;;;;;;10427163;28;20662;-78
2021/01/16 02:27:14;;;;;;;11.73;9.30;;;3.40;40.60;;;;;;10409457;28;20222;-78
2021/01/16 02:32:17;;;;;;;9.47;8.47;;;3.40;40.90;;;;;;10419576;28;20237;-78
2021/01/16 02:38:00;;;;;;;10.80;9.00;;;3.40;40.70;;;;;;10409154;28;20226;-78
2021/01/16 02:43:22;;;;;;;10.77;8.63;;;3.40;40.70;;;;;;10399134;28;20229;-78
2021/01/16 02:48:27;;;;;;;9.43;8.30;;;3.40;40.70;;;;;;10407684;28;20229;-78
2021/01/16 02:53:36;;;;;;;10.93;9.50;;;3.40;40.70;;;;;;10424210;28;20717;-78
2021/01/16 02:58:39;;;;;;;10.73;9.63;;;3.40;40.80;;;;;;10407527;28;20232;-78
2021/01/16 03:03:41;;;;;;;11.00;9.40;;;3.50;40.70;;;;;;10426660;28;20289;-78
2021/01/16 03:08:44;;;;;;;10.87;9.77;;;3.50;40.60;;;;;;10416737;28;20230;-78
2021/01/16 03:13:49;;;;;;;9.93;8.90;;;3.50;40.70;;;;;;10421001;28;20252;-78
2021/01/16 03:18:55;;;;;;;10.50;9.40;;;3.50;40.50;;;;;;10412329;28;20247;-78
2021/01/16 03:23:57;;;;;;;11.20;9.97;;;3.50;40.60;;;;;;10431204;28;20319;-78
2021/01/16 03:29:00;;;;;;;11.20;9.97;;;3.50;40.40;;;;;;10430188;28;20794;-78
2021/01/16 03:34:03;;;;;;;10.93;9.73;;;3.50;40.40;;;;;;10419515;28;20233;-78
2021/01/16 03:39:05;;;;;;;12.30;11.00;;;3.50;40.50;;;;;;10427904;28;20229;-78
2021/01/16 03:44:08;;;;;;;11.57;10.37;;;3.50;40.50;;;;;;10401112;28;20321;-78
2021/01/16 03:49:11;;;;;;;13.80;11.83;;;3.50;40.50;;;;;;10427223;28;20243;-78
2021/01/16 03:54:13;;;;;;;12.33;10.70;;;3.40;40.50;;;;;;10417709;28;20237;-78
2021/01/16 03:59:16;;;;;;;12.33;11.03;;;3.40;40.60;;;;;;10437340;28;20256;-78
2021/01/16 04:04:18;;;;;;;15.73;11.97;;;3.40;40.80;;;;;;10426148;28;20308;-78
2021/01/16 04:09:20;;;;;;;13.97;12.57;;;3.30;40.60;;;;;;10409011;28;20328;-78
2021/01/16 04:14:24;;;;;;;12.90;11.60;;;3.30;40.80;;;;;;10432149;28;20303;-76
2021/01/16 04:19:26;;;;;;;14.13;12.03;;;3.30;40.90;;;;;;10403964;28;20226;-75
2021/01/16 04:24:28;;;;;;;14.90;12.07;;;3.30;40.80;;;;;;10429909;28;20229;-76
2021/01/16 04:29:31;;;;;;;13.40;12.00;;;3.20;40.70;;;;;;10428437;28;20600;-75
2021/01/16 04:34:33;;;;;;;13.73;12.03;;;3.20;40.90;;;;;;10428256;28;20263;-75
2021/01/16 04:39:36;;;;;;;13.87;12.00;;;3.20;40.80;;;;;;10434983;28;20227;-75
2021/01/16 04:44:45;;;;;;;13.17;11.73;;;3.20;40.80;;;;;;10412973;28;20292;-75
2021/01/16 04:49:49;;;;;;;12.40;11.10;;;3.20;41.00;;;;;;10404223;28;20242;-76
2021/01/16 04:54:52;;;;;;;13.47;11.90;;;3.20;41.00;;;;;;10435388;28;20233;-75
2021/01/16 04:59:57;;;;;;;12.50;10.93;;;3.20;40.80;;;;;;10432224;28;20309;-75
2021/01/16 05:05:01;;;;;;;14.30;11.90;;;3.10;41.00;;;;;;10409887;28;20630;-75
2021/01/16 05:10:07;;;;;;;14.83;11.93;;;3.10;41.00;;;;;;10419033;28;20234;-76
2021/01/16 05:15:19;;;;;;;12.53;11.13;;;3.20;41.20;;;;;;10408921;28;20269;-76
2021/01/16 05:20:22;;;;;;;13.00;10.93;;;3.10;41.00;;;;;;10398197;28;20260;-76
2021/01/16 05:25:30;;;;;;;12.43;10.97;;;3.20;41.00;;;;;;10411018;28;20226;-76
2021/01/16 05:30:51;;;;;;;13.80;11.47;;;3.20;41.00;;;;;;10413098;28;20234;-76
2021/01/16 05:35:54;;;;;;;14.17;11.70;;;3.10;40.90;;;;;;10434331;28;20247;-75
2021/01/16 05:40:57;;;;;;;13.20;11.83;;;3.10;40.80;;;;;;10405639;28;20254;-76
2021/01/16 05:46:03;;;;;;;14.00;11.70;;;3.10;40.80;;;;;;10420023;28;20229;-76
2021/01/16 05:51:06;;;;;;;13.23;11.83;;;3.10;40.90;;;;;;10439363;28;20709;-77
2021/01/16 05:56:11;;;;;;;12.60;10.90;;;3.00;40.80;;;;;;10414121;28;20252;-76
2021/01/16 06:01:22;;;;;;;14.80;11.57;;;3.00;41.00;;;;;;10414813;28;20316;-76
2021/01/16 06:06:25;;;;;;;13.30;11.23;;;2.90;41.00;;;;;;10426425;28;20250;-76
2021/01/16 06:11:36;;;;;;;12.10;10.50;;;2.80;40.90;;;;;;10433081;28;20597;-76
2021/01/16 06:16:49;;;;;;;13.17;11.10;;;2.90;41.00;;;;;;10426266;28;20237;-76
2021/01/16 06:21:54;;;;;;;12.23;10.80;;;2.90;41.00;;;;;;10425613;28;20232;-77
2021/01/16 06:26:58;;;;;;;13.63;10.37;;;2.90;41.00;;;;;;10437519;28;20319;-74
2021/01/16 06:32:06;;;;;;;11.80;9.93;;;2.80;40.90;;;;;;10432630;28;20240;-74
2021/01/16 06:37:11;;;;;;;12.13;9.70;;;2.80;41.00;;;;;;10431847;28;20217;-74
2021/01/16 06:42:14;;;;;;;10.80;9.60;;;2.80;40.90;;;;;;10427000;28;20708;-74
2021/01/16 06:47:26;;;;;;;12.90;10.13;;;3.00;41.10;;;;;;10424781;28;20217;-74
2021/01/16 06:52:32;;;;;;;12.60;10.60;;;2.80;41.00;;;;;;10431959;28;20225;-74
2021/01/16 06:57:35;;;;;;;13.43;11.17;;;2.80;40.70;;;;;;10424935;28;20224;-74
2021/01/16 07:02:40;;;;;;;11.33;9.80;;;2.80;40.80;;;;;;10413982;28;20229;-74
2021/01/16 07:07:45;;;;;;;13.13;10.20;;;2.80;40.80;;;;;;10424848;28;20228;-75
2021/01/16 07:12:49;;;;;;;14.23;11.30;;;2.90;40.80;;;;;;10433947;28;20299;-75
2021/01/16 07:17:53;;;;;;;13.07;10.50;;;2.90;40.60;;;;;;10433316;28;20275;-75
2021/01/16 07:22:55;;;;;;;10.93;9.47;;;2.90;40.40;;;;;;10434658;28;20294;-75
2021/01/16 07:27:58;;;;;;;11.43;9.07;;;2.90;40.60;;;;;;10423391;28;20240;-75
2021/01/16 07:33:02;;;;;;;9.87;8.90;;;2.90;40.70;;;;;;10412172;28;20226;-75
2021/01/16 07:38:07;;;;;;;10.80;9.17;;;2.90;40.80;;;;;;10426691;28;20304;-75
2021/01/16 07:43:25;;;;;;;10.83;9.73;;;3.00;40.70;;;;;;10391643;28;20234;-75
2021/01/16 07:48:32;;;;;;;10.67;9.37;;;2.90;40.70;;;;;;10399274;28;20240;-75
2021/01/16 07:53:42;;;;;;;9.87;8.83;;;3.00;40.80;;;;;;10410043;28;20252;-75
2021/01/16 07:58:55;;;;;;;10.73;9.60;;;3.00;41.10;;;;;;10428974;28;20217;-74
2021/01/16 08:04:23;;;;;;;10.57;9.50;;;3.00;40.80;;;;;;10406723;28;20731;-75
2021/01/16 08:09:49;;;;;;;10.00;9.00;;;3.00;40.90;;;;;;10400494;28;20226;-75
2021/01/16 08:14:52;;;;;;;10.30;9.27;;;2.90;40.80;;;;;;10422006;28;20309;-75
2021/01/16 08:20:15;;;;;;;9.90;8.90;;;2.90;40.90;;;;;;10429852;28;20233;-75
2021/01/16 08:25:22;;;;;;;10.47;9.40;;;2.90;41.00;;;;;;10419291;28;20256;-75
2021/01/16 08:30:26;;;;;;;10.67;9.20;;;2.90;41.00;;;;;;10431382;28;20233;-75
2021/01/16 08:35:31;;;;;;;10.90;9.60;;;2.90;41.00;;;;;;10430840;28;20232;-75
2021/01/16 08:40:37;;;;;;;10.67;9.57;;;2.90;41.00;;;;;;10420954;28;20279;-75
2021/01/16 08:45:39;;;;;;;11.13;8.90;;;2.90;41.00;;;;;;10433751;28;20267;-76
2021/01/16 08:50:42;;;;;;;11.27;9.30;;;3.00;41.10;;;;;;10405151;28;20314;-74
2021/01/16 08:55:44;;;;;;;10.40;9.17;;;3.00;41.00;;;;;;10412209;28;20225;-75
2021/01/16 09:00:51;;;;;;;10.63;9.43;;;3.00;41.00;;;;;;10417712;28;20235;-76
2021/01/16 09:06:02;;;;;;;9.33;8.33;;;3.00;41.10;;;;;;10411517;28;20239;-75
2021/01/16 09:11:12;;;;;;;8.63;7.63;;;3.00;41.10;;;;;;10424749;28;20233;-75
2021/01/16 09:16:29;;;;;;;9.47;8.47;;;3.10;41.00;;;;;;10416258;28;20235;-75
2021/01/16 09:21:32;;;;;;;9.80;8.80;;;3.00;40.80;;;;;;10435202;28;20251;-76
2021/01/16 09:26:36;;;;;;;10.13;9.07;;;3.00;41.00;;;;;;10414629;28;20231;-75
2021/01/16 09:31:41;;;;;;;9.97;8.70;;;3.10;41.20;;;;;;10399618;28;20237;-75
2021/01/16 09:36:49;;;;;;;11.57;10.33;;;3.10;41.10;;;;;;10431621;28;20247;-75
2021/01/16 09:41:54;;;;;;;9.57;8.53;;;3.20;40.90;;;;;;10432919;28;20235;-75
2021/01/16 09:46:56;;;;;;;9.83;8.83;;;3.20;41.00;;;;;;10417355;28;20228;-75
2021/01/16 09:52:06;;;;;;;10.53;9.43;;;3.20;41.20;;;;;;10389695;28;20233;-74
2021/01/16 09:57:09;;;;;;;9.57;8.57;;;3.30;40.90;;;;;;10390876;28;20235;-77
2021/01/16 10:02:13;;;;;;;9.67;8.40;;;3.40;41.00;;;;;;10402452;28;20609;-77
2021/01/16 10:07:17;;;;;;;9.73;8.73;;;3.40;40.90;;;;;;10396077;28;20657;-77
2021/01/16 10:12:41;;;;;;;10.70;9.60;;;3.40;40.90;;;;;;10396205;28;20240;-76
2021/01/16 10:17:46;;;;;;;11.27;10.17;;;3.40;40.60;;;;;;10401268;22;20222;-71
2021/01/16 10:22:52;;;;;;;11.00;9.87;;;3.50;40.70;;;;;;10368747;28;20309;-71
2021/01/16 10:27:56;;;;;;;10.17;9.17;;;3.50;40.90;;;;;;10368143;28;20718;-71
2021/01/16 10:32:59;;;;;;;9.83;8.63;;;3.50;41.00;;;;;;10365385;28;20336;-68
2021/01/16 10:38:03;;;;;;;9.27;8.33;;;3.60;40.80;;;;;;10363220;28;20265;-68
2021/01/16 10:43:14;;;;;;;11.73;9.67;;;3.60;40.60;;;;;;10363339;28;20230;-71
2021/01/16 10:48:17;;;;;;;11.57;10.33;;;3.70;40.30;;;;;;10356079;28;20723;-71
2021/01/16 10:53:34;;;;;;;10.50;9.40;;;3.70;40.20;;;;;;10361291;28;20229;-68
2021/01/16 10:58:39;;;;;;;11.50;8.97;;;3.70;40.10;;;;;;10359294;28;20311;-68
2021/01/16 11:03:42;;;;;;;10.47;9.37;;;3.80;40.60;;;;;;10364236;28;20224;-70
2021/01/16 11:08:53;;;;;;;10.23;9.23;;;3.80;40.10;;;;;;10365249;28;20281;-70
2021/01/16 11:13:56;;;;;;;11.33;9.07;;;3.80;39.40;;;;;;10360830;28;20568;-71
2021/01/16 11:19:08;;;;;;;11.00;9.90;;;3.80;39.60;;;;;;10359871;28;20226;-70
2021/01/16 11:24:52;;;;;;;9.47;8.43;;;3.90;39.10;;;;;;10363427;28;20223;-70
2021/01/16 11:30:04;;;;;;;8.53;7.67;;;3.90;37.60;;;;;;10362319;28;20257;-71
2021/01/16 11:35:09;;;;;;;10.13;8.43;;;3.90;38.90;;;;;;10363332;28;20590;-70
2021/01/16 11:40:28;;;;;;;7.97;7.27;;;3.90;38.70;;;;;;10362492;28;20873;-68
2021/01/16 11:45:34;;;;;;;8.47;7.60;;;3.90;38.20;;;;;;10363601;28;20574;-68
2021/01/16 11:50:38;;;;;;;6.17;5.57;;;3.90;38.90;;;;;;10366098;28;20597;-68
2021/01/16 11:55:41;;;;;;;8.90;8.00;;;3.90;38.60;;;;;;10357044;28;20222;-71
2021/01/16 12:00:45;;;;;;;6.37;5.77;;;3.90;38.00;;;;;;10362078;28;20724;-71
2021/01/16 12:05:52;;;;;;;6.43;5.83;;;3.90;37.70;;;;;;10351968;28;20236;-68
2021/01/16 12:10:56;;;;;;;8.20;7.23;;;3.90;37.80;;;;;;10363212;28;20240;-71
2021/01/16 12:15:58;;;;;;;10.57;8.90;;;3.80;37.10;;;;;;10360825;28;20926;-68
2021/01/16 12:21:02;;;;;;;8.80;7.90;;;3.80;38.00;;;;;;10363676;28;20690;-68
2021/01/16 12:26:09;;;;;;;8.57;7.67;;;3.70;38.20;;;;;;10353389;28;20616;-68
2021/01/16 12:31:18;;;;;;;9.43;8.43;;;3.70;38.00;;;;;;10367397;28;20260;-68
2021/01/16 12:36:21;;;;;;;11.90;9.90;;;3.70;38.10;;;;;;10367414;28;20322;-71
2021/01/16 12:41:25;;;;;;;10.70;9.60;;;3.70;38.50;;;;;;10363165;28;20257;-72
2021/01/16 12:46:29;;;;;;;10.10;9.10;;;3.70;38.50;;;;;;10362130;28;20240;-71
2021/01/16 12:51:33;;;;;;;12.40;10.33;;;3.70;39.10;;;;;;10360123;28;20232;-71
2021/01/16 12:56:36;;;;;;;13.67;10.50;;;3.80;38.70;;;;;;10365978;28;20226;-71
2021/01/16 13:01:39;;;;;;;11.17;10.03;;;3.80;38.70;;;;;;10366139;28;20230;-68
2021/01/16 13:06:43;;;;;;;11.90;10.30;;;3.90;38.90;;;;;;10366251;28;20230;-68
2021/01/16 13:11:49;;;;;;;10.93;9.83;;;3.90;38.80;;;;;;10351064;28;20586;-68
2021/01/16 13:16:52;;;;;;;12.50;10.70;;;4.00;38.20;;;;;;10360589;28;20634;-68
2021/01/16 13:21:54;;;;;;;11.60;10.37;;;4.00;38.40;;;;;;10360513;28;20792;-68
2021/01/16 13:27:03;;;;;;;10.93;9.80;;;3.90;38.50;;;;;;10364350;28;20235;-68
2021/01/16 13:32:06;;;;;;;10.90;9.80;;;3.90;37.80;;;;;;10365094;28;20313;-68
2021/01/16 13:37:16;;;;;;;11.10;10.00;;;3.90;38.00;;;;;;10362877;28;20757;-72
2021/01/16 13:42:27;;;;;;;11.47;10.27;;;3.90;38.00;;;;;;10362794;28;20650;-68
2021/01/16 13:47:30;;;;;;;13.40;10.97;;;3.90;38.00;;;;;;10363826;28;20745;-68
2021/01/16 13:52:43;;;;;;;13.90;12.43;;;3.90;38.40;;;;;;10368915;28;20265;-70
2021/01/16 13:58:00;;;;;;;13.67;12.07;;;3.90;38.10;;;;;;10360240;28;20365;-68
2021/01/16 14:03:03;;;;;;;12.80;11.10;;;3.90;38.20;;;;;;10365360;28;20313;-70
2021/01/16 14:08:14;;;;;;;13.17;11.80;;;3.90;38.70;;;;;;10364399;28;20652;-69
2021/01/16 14:13:18;;;;;;;14.50;12.40;;;3.90;38.50;;;;;;10366423;28;20240;-68
2021/01/16 14:18:28;;;;;;;16.13;13.20;;;4.00;38.30;;;;;;10363978;28;20222;-68
2021/01/16 14:23:32;;;;;;;14.53;13.03;;;4.00;37.80;;;;;;10359100;28;20230;-70
2021/01/16 14:28:36;;;;;;;14.73;12.37;;;3.90;38.10;;;;;;10363953;28;20233;-68
2021/01/16 14:33:38;;;;;;;15.17;12.83;;;3.90;38.40;;;;;;10364479;28;20698;-68
2021/01/16 14:38:41;;;;;;;14.50;12.53;;;3.80;38.60;;;;;;10366064;28;20233;-68
2021/01/16 14:43:44;;;;;;;12.80;11.27;;;3.90;38.70;;;;;;10364745;28;20226;-68
2021/01/16 14:48:46;;;;;;;13.83;12.03;;;3.90;38.90;;;;;;10364973;28;20234;-71
2021/01/16 14:53:49;;;;;;;13.67;12.17;;;3.90;38.90;;;;;;10361301;28;20766;-71
2021/01/16 14:59:00;;;;;;;14.97;13.07;;;3.90;38.90;;;;;;10361254;28;20245;-68
2021/01/16 15:04:03;;;;;;;12.47;10.80;;;3.90;38.70;;;;;;10363151;28;20601;-68
2021/01/16 15:09:05;;;;;;;15.13;13.53;;;4.00;38.90;;;;;;10364652;28;20237;-68
2021/01/16 15:14:08;;;;;;;15.43;13.83;;;4.00;38.70;;;;;;10368126;28;20245;-69
2021/01/16 15:19:11;;;;;;;15.77;12.97;;;3.90;39.40;;;;;;10362731;28;20234;-68
2021/01/16 15:24:14;;;;;;;15.17;13.50;;;3.90;39.00;;;;;;10358685;28;20233;-68
2021/01/16 15:29:17;;;;;;;14.40;12.73;;;3.90;39.10;;;;;;10359232;28;20234;-67
2021/01/16 15:34:22;;;;;;;17.60;14.83;;;3.90;39.10;;;;;;10361891;28;20230;-71
2021/01/16 15:39:24;;;;;;;17.50;13.60;;;3.90;39.20;;;;;;10356932;28;20237;-71
2021/01/16 15:44:30;;;;;;;15.90;13.57;;;3.80;39.10;;;;;;10363478;28;20758;-71
2021/01/16 15:49:32;;;;;;;15.10;13.27;;;3.80;39.30;;;;;;10359404;28;20313;-68
2021/01/16 15:54:35;;;;;;;16.63;13.90;;;3.70;39.30;;;;;;10364426;28;20222;-68
2021/01/16 15:59:38;;;;;;;16.80;13.63;;;3.70;39.30;;;;;;10365671;28;20230;-68
2021/01/16 16:04:42;;;;;;;15.80;13.40;;;3.70;39.40;;;;;;10362494;28;20565;-68
2021/01/16 16:09:44;;;;;;;16.80;12.77;;;3.70;39.40;;;;;;10365561;28;20695;-68
2021/01/16 16:14:47;;;;;;;15.80;14.10;;;3.60;39.50;;;;;;10361337;28;20222;-68
2021/01/16 16:19:50;;;;;;;16.57;14.77;;;3.70;39.60;;;;;;10361765;28;20837;-68
2021/01/16 16:24:52;;;;;;;16.37;13.87;;;3.60;39.50;;;;;;10366635;28;20317;-68
2021/01/16 16:29:55;;;;;;;14.43;12.93;;;3.60;39.60;;;;;;10364019;28;20274;-69
2021/01/16 16:34:57;;;;;;;16.67;14.07;;;3.60;39.70;;;;;;10366563;28;20777;-68
2021/01/16 16:40:00;;;;;;;16.87;14.70;;;3.60;39.70;;;;;;10360792;28;20218;-68
2021/01/16 16:45:04;;;;;;;16.17;14.30;;;3.60;39.60;;;;;;10365829;28;20246;-69
2021/01/16 16:50:07;;;;;;;15.63;13.77;;;3.60;39.60;;;;;;10368613;28;20233;-68
2021/01/16 16:55:11;;;;;;;15.63;13.37;;;3.60;39.60;;;;;;10367155;28;20249;-68
2021/01/16 17:00:16;;;;;;;13.67;12.27;;;3.60;39.60;;;;;;10373555;28;20230;-68
2021/01/16 17:05:20;;;;;;;13.97;12.57;;;3.60;39.60;;;;;;10360553;28;20246;-68
2021/01/16 17:10:30;;;;;;;14.23;12.70;;;3.60;39.60;;;;;;10373109;28;20269;-68
2021/01/16 17:15:34;;;;;;;14.23;12.10;;;3.60;39.60;;;;;;10367326;28;20284;-68
2021/01/16 17:20:38;;;;;;;12.67;11.20;;;3.60;39.40;;;;;;10364274;28;20233;-68
2021/01/16 17:25:40;;;;;;;11.00;9.60;;;3.60;39.10;;;;;;10355834;28;20238;-68
2021/01/16 17:30:43;;;;;;;9.13;8.23;;;3.60;38.40;;;;;;10368209;28;20309;-68
2021/01/16 17:35:45;;;;;;;8.63;7.83;;;3.60;38.30;;;;;;10365822;28;20317;-68
2021/01/16 17:40:48;;;;;;;7.57;6.77;;;3.50;38.00;;;;;;10366273;28;20272;-70
2021/01/16 17:45:51;;;;;;;6.87;6.17;;;3.50;37.80;;;;;;10369175;28;20218;-69
2021/01/16 17:50:53;;;;;;;7.47;6.73;;;3.40;37.60;;;;;;10366127;28;20250;-68
2021/01/16 17:55:55;;;;;;;7.17;6.47;;;3.40;37.60;;;;;;10365560;28;20240;-69
2021/01/16 18:00:58;;;;;;;8.00;7.20;;;3.40;37.70;;;;;;10359512;28;20218;-68
2021/01/16 18:06:01;;;;;;;8.07;6.37;;;3.50;37.80;;;;;;10360554;28;20226;-68
2021/01/16 18:11:03;;;;;;;8.97;7.50;;;3.50;38.10;;;;;;10357772;28;20706;-68
2021/01/16 18:16:09;;;;;;;8.10;7.30;;;3.50;37.60;;;;;;10362407;28;20218;-69
2021/01/16 18:21:11;;;;;;;7.20;6.50;;;3.50;37.30;;;;;;10369947;28;20245;-68
2021/01/16 18:26:14;;;;;;;8.20;7.40;;;3.50;37.70;;;;;;10365398;28;20230;-68
2021/01/16 18:31:17;;;;;;;7.43;6.73;;;3.50;37.60;;;;;;10371943;28;20282;-68
2021/01/16 18:36:19;;;;;;;7.83;6.97;;;3.60;37.50;;;;;;10361453;28;20240;-68
2021/01/16 18:41:22;;;;;;;8.33;7.27;;;3.60;37.60;;;;;;10375479;28;20591;-70
2021/01/16 18:46:31;;;;;;;8.30;7.50;;;3.60;37.50;;;;;;10359372;28;20234;-70
2021/01/16 18:51:37;;;;;;;9.57;8.17;;;3.70;37.00;;;;;;10360650;28;20288;-70
2021/01/16 18:56:40;;;;;;;13.17;11.80;;;3.70;37.60;;;;;;10352863;28;20288;-71
2021/01/16 19:01:44;;;;;;;10.50;9.17;;;3.70;37.70;;;;;;10359020;28;20222;-68
2021/01/16 19:06:49;;;;;;;10.17;9.17;;;3.70;37.50;;;;;;10358999;28;20223;-68
2021/01/16 19:11:54;;;;;;;10.63;9.60;;;3.70;37.60;;;;;;10360564;28;20623;-68
2021/01/16 19:16:58;;;;;;;9.13;8.23;;;3.70;37.40;;;;;;10367337;28;20230;-71
2021/01/16 19:22:00;;;;;;;10.03;8.97;;;3.60;37.70;;;;;;10351626;28;20740;-71
2021/01/16 19:27:04;;;;;;;10.30;9.10;;;3.70;37.90;;;;;;10364355;28;20257;-70
2021/01/16 19:32:08;;;;;;;9.67;8.50;;;3.60;37.60;;;;;;10362407;28;20718;-71
2021/01/16 19:37:10;;;;;;;10.10;8.90;;;3.60;37.70;;;;;;10356227;28;20722;-71
2021/01/16 19:42:12;;;;;;;10.40;9.30;;;3.60;37.70;;;;;;10366043;28;20222;-70
2021/01/16 19:47:16;;;;;;;12.33;10.37;;;3.60;37.90;;;;;;10361066;28;20799;-68
2021/01/16 19:52:18;;;;;;;14.87;10.90;;;3.60;37.90;;;;;;10357348;28;20222;-68
2021/01/16 19:57:20;;;;;;;11.10;10.03;;;3.70;38.00;;;;;;10362896;28;20238;-70
2021/01/16 20:02:24;;;;;;;10.27;9.13;;;3.70;37.80;;;;;;10356682;28;20284;-70
2021/01/16 20:07:26;;;;;;;9.63;8.63;;;3.70;37.60;;;;;;10362821;28;20234;-70
2021/01/16 20:12:32;;;;;;;9.03;8.13;;;3.60;37.70;;;;;;10356044;28;20232;-68
2021/01/16 20:17:37;;;;;;;9.97;8.77;;;3.60;37.90;;;;;;10369687;28;20722;-70
2021/01/16 20:22:41;;;;;;;11.83;10.63;;;3.60;37.90;;;;;;10353098;28;20279;-71
2021/01/16 20:27:43;;;;;;;11.93;10.73;;;3.60;37.80;;;;;;10355367;28;20234;-70
2021/01/16 20:32:46;;;;;;;16.63;11.63;;;3.60;37.90;;;;;;10358538;28;20229;-70
2021/01/16 20:37:50;;;;;;;12.50;10.70;;;3.70;37.90;;;;;;10358371;28;20325;-68
2021/01/16 20:42:53;;;;;;;13.90;12.17;;;3.70;38.00;;;;;;10358702;28;20660;-68
2021/01/16 20:47:56;;;;;;;16.50;12.67;;;3.60;37.90;;;;;;10363790;28;20230;-68
2021/01/16 20:52:58;;;;;;;15.17;13.53;;;3.50;38.00;;;;;;10357435;28;20233;-68
2021/01/16 20:58:00;;;;;;;19.40;14.97;;;3.50;38.10;;;;;;10359173;28;20238;-70
2021/01/16 21:03:03;;;;;;;16.73;14.30;;;3.40;38.00;;;;;;10357839;28;20230;-70
2021/01/16 21:08:07;;;;;;;17.30;13.97;;;3.40;38.00;;;;;;10364431;28;20235;-68
2021/01/16 21:13:09;;;;;;;16.40;13.70;;;3.20;38.00;;;;;;10374234;28;20261;-68
2021/01/16 21:18:13;;;;;;;16.27;14.03;;;3.20;38.00;;;;;;10357332;28;20240;-68
2021/01/16 21:23:15;;;;;;;14.97;13.33;;;3.00;37.90;;;;;;10370543;28;20601;-68
2021/01/16 21:28:17;;;;;;;16.93;13.80;;;2.90;37.90;;;;;;10374869;28;20317;-68
2021/01/16 21:33:20;;;;;;;16.53;13.90;;;2.80;37.90;;;;;;10369139;28;20280;-68
2021/01/16 21:38:22;;;;;;;17.33;13.77;;;2.70;37.90;;;;;;10370513;28;20238;-70
2021/01/16 21:43:25;;;;;;;15.27;12.80;;;2.60;38.10;;;;;;10363126;28;20242;-70
2021/01/16 21:48:28;;;;;;;16.17;13.67;;;2.50;38.00;;;;;;10376182;28;20222;-70
2021/01/16 21:53:31;;;;;;;16.50;14.07;;;2.40;38.00;;;;;;10370581;28;21000;-70
2021/01/16 21:58:33;;;;;;;16.37;13.57;;;2.30;38.10;;;;;;10368660;28;20222;-70
2021/01/16 22:03:36;;;;;;;16.77;14.00;;;2.30;38.10;;;;;;10366857;28;20229;-70
2021/01/16 22:08:38;;;;;;;19.27;15.27;;;2.30;38.10;;;;;;10364841;28;20899;-70
2021/01/16 22:13:42;;;;;;;16.27;13.87;;;2.30;38.00;;;;;;10366704;28;20317;-70
2021/01/16 22:18:45;;;;;;;15.90;13.63;;;2.30;38.00;;;;;;10357979;28;20828;-70
2021/01/16 22:23:47;;;;;;;15.67;13.63;;;2.20;38.00;;;;;;10369424;28;20222;-70
2021/01/16 22:28:49;;;;;;;19.43;14.73;;;2.10;38.10;;;;;;10366167;28;20649;-70
2021/01/16 22:33:52;;;;;;;19.40;15.83;;;2.10;38.10;;;;;;10376756;28;20226;-70
2021/01/16 22:38:55;;;;;;;20.40;15.93;;;2.10;38.10;;;;;;10361392;28;20718;-70
2021/01/16 22:43:58;;;;;;;19.63;14.87;;;2.10;38.20;;;;;;10367973;28;20231;-70
2021/01/16 22:49:01;;;;;;;19.27;15.27;;;2.10;38.30;;;;;;10366930;28;20230;-70
2021/01/16 22:54:04;;;;;;;18.13;14.73;;;2.10;38.30;;;;;;10367206;28;20313;-70
2021/01/16 22:59:07;;;;;;;15.97;12.97;;;2.10;38.20;;;;;;10364150;28;20597;-70
2021/01/16 23:04:10;;;;;;;15.93;13.50;;;2.10;38.10;;;;;;10370619;28;20226;-70
2021/01/16 23:09:12;;;;;;;15.80;13.07;;;2.10;38.10;;;;;;10367284;28;20332;-70
2021/01/16 23:14:15;;;;;;;16.07;13.07;;;2.00;38.00;;;;;;10374016;28;20237;-70
2021/01/16 23:19:19;;;;;;;16.30;13.67;;;2.00;38.00;;;;;;10366360;28;20240;-70
2021/01/16 23:24:21;;;;;;;16.97;14.37;;;1.90;37.90;;;;;;10366838;28;20325;-70
2021/01/16 23:29:23;;;;;;;17.60;13.90;;;1.80;37.90;;;;;;10361546;28;20234;-70
2021/01/16 23:34:26;;;;;;;17.80;14.07;;;1.80;37.90;;;;;;10366443;28;20237;-70
2021/01/16 23:39:28;;;;;;;16.83;14.33;;;1.80;38.00;;;;;;10377249;28;20229;-70
2021/01/16 23:44:31;;;;;;;18.27;13.80;;;1.60;37.90;;;;;;10366220;28;20222;-70
2021/01/16 23:49:34;;;;;;;17.87;13.77;;;1.60;38.00;;;;;;10371834;28;20653;-70
2021/01/16 23:54:36;;;;;;;16.73;14.20;;;1.40;37.90;;;;;;10365312;28;20226;-71
2021/01/16 23:59:38;;;;;;;17.77;14.23;;;1.30;38.10;;;;;;10366110;28;20603;-70
